Aviation Digital Data Service (ADDS)

Output produced by TAFs form (0358 UTC 22 February 2017)
found at http://aviationweather.gov/adds/tafs/
 
KLND 212333Z 2200/2224 24020G32KT P6SM VCSH BKN050 
     TEMPO 2203/2205 VRB10G15KT -SHRA BKN040 
     FM220700 25011KT P6SM SCT050 BKN100